Terminal Aerodrome Forecast
Issued by NWS

Home | Current Version | Previous Version | Text Only | Print | Product List | Glossary On
Versions: 1 2 3 4 5 6 7 8 9 10 11 12 13 14 15
000
FTUS45 KTFX 040524
TAFCTB
TAF
KCTB 040524Z 0406/0506 12006KT P6SM -SHRA BKN035 OVC050
      TEMPO 0408/0412 2SM BR BKN004 OVC025
     FM041200 04008KT 4SM -RA BR SCT010 OVC025=

USA.gov is the U.S. government's official web portal to all federal, state and local government web resources and services.